Terminal Aerodrome Forecast
Issued by NWS

Current Version | Previous Version | Graphics & Text | Print | Product List | Glossary On
Versions: 1 2 3 4 5 6 7 8 9 10 11 12 13 14 15 16 17 18
000
FTUS41 KILN 202339
TAFLCK
TAF
KLCK 202339Z 2100/2124 24009KT P6SM SCT070
     FM210300 21005KT P6SM BKN150
     FM210500 21006KT P6SM VCSH SCT080 BKN130
     FM210800 21006KT P6SM BKN130
     FM211500 24008KT P6SM SCT040 BKN070=

USA.gov is the U.S. government's official web portal to all federal, state and local government web resources and services.